Time;durP1;ratioP1;P1;durP2;ratioP2;P2;SDS_P1;SDS_P2;PMS_P1;PMS_P2;Temp;Humidity;BMP_temperature;BMP_pressure;BME280_temperature;BME280_humidity;BME280_pressure;Samples;Min_cycle;Max_cycle;Signal;HPM_P1;HPM_P2
2023/09/15 04:05:31;;;;;;;0.30;0.20;;;13.10;99.90;;;;;;5666691;23;20554;-71
2023/09/15 04:07:57;;;;;;;0.30;0.20;;;13.10;99.90;;;;;;4958737;28;20445;-71
2023/09/15 04:10:23;;;;;;;0.30;0.20;;;13.10;99.90;;;;;;4976725;28;20416;-71
2023/09/15 04:12:49;;;;;;;0.30;0.20;;;13.20;99.90;;;;;;4976774;28;20406;-70
2023/09/15 04:15:15;;;;;;;0.30;0.20;;;13.30;99.90;;;;;;4976193;28;20203;-70
2023/09/15 04:17:41;;;;;;;0.30;0.27;;;13.40;99.90;;;;;;4976713;28;20879;-69
2023/09/15 04:20:09;;;;;;;2.00;1.13;;;13.40;99.90;;;;;;4976583;28;20442;-71
2023/09/15 04:22:38;;;;;;;0.57;0.57;;;13.60;99.90;;;;;;4976646;28;20410;-70
2023/09/15 04:25:05;;;;;;;0.30;0.30;;;13.70;99.90;;;;;;4963104;28;20485;-71
2023/09/15 04:27:32;;;;;;;0.30;0.20;;;13.60;99.90;;;;;;4957252;28;20438;-71
2023/09/15 04:29:58;;;;;;;0.30;0.23;;;13.60;99.90;;;;;;4957029;29;20418;-70
2023/09/15 04:32:24;;;;;;;0.30;0.20;;;13.60;99.90;;;;;;4957031;29;20746;-70
2023/09/15 04:34:51;;;;;;;0.30;0.30;;;13.50;99.90;;;;;;4955671;29;20470;-70
2023/09/15 04:37:17;;;;;;;0.30;0.30;;;13.50;99.90;;;;;;4956432;29;20176;-71
2023/09/15 04:39:43;;;;;;;0.30;0.30;;;13.50;99.90;;;;;;4968939;28;21040;-70
2023/09/15 04:42:12;;;;;;;0.30;0.30;;;13.40;99.90;;;;;;4976166;28;20419;-70
2023/09/15 04:44:38;;;;;;;0.30;0.30;;;13.30;99.90;;;;;;4975554;28;20221;-70
2023/09/15 04:47:04;;;;;;;0.30;0.30;;;13.30;99.90;;;;;;4975988;28;20454;-71
2023/09/15 04:49:30;;;;;;;0.30;0.30;;;13.40;99.90;;;;;;4960805;28;20426;-70
2023/09/15 04:51:56;;;;;;;0.30;0.30;;;13.30;99.90;;;;;;4960813;28;20493;-70
2023/09/15 04:54:21;;;;;;;0.30;0.20;;;13.20;99.90;;;;;;4975557;28;20195;-70
2023/09/15 04:56:47;;;;;;;0.30;0.20;;;13.00;99.90;;;;;;4956691;28;20251;-70
2023/09/15 04:59:19;;;;;;;0.30;0.30;;;12.90;99.90;;;;;;4956738;29;20199;-70
2023/09/15 05:01:46;;;;;;;0.30;0.30;;;12.80;99.90;;;;;;4963780;28;20170;-71
2023/09/15 05:04:14;;;;;;;0.30;0.30;;;12.70;99.90;;;;;;4975223;28;20433;-70
2023/09/15 05:06:40;;;;;;;0.50;0.50;;;12.70;99.90;;;;;;4975382;28;20449;-71
2023/09/15 05:09:08;;;;;;;0.30;0.30;;;12.60;99.90;;;;;;4973662;28;20473;-71
2023/09/15 05:11:35;;;;;;;0.30;0.30;;;12.60;99.90;;;;;;4938452;29;20458;-70
2023/09/15 05:14:00;;;;;;;0.40;0.40;;;12.70;99.90;;;;;;4964428;28;20523;-69
2023/09/15 05:16:26;;;;;;;0.30;0.30;;;12.70;99.90;;;;;;4975374;28;20421;-64
2023/09/15 05:18:51;;;;;;;0.30;0.30;;;12.70;99.90;;;;;;4975402;28;20181;-64
2023/09/15 05:21:17;;;;;;;0.30;0.30;;;12.60;99.90;;;;;;4959704;28;20209;-64
2023/09/15 05:23:42;;;;;;;0.30;0.30;;;12.80;99.90;;;;;;4955471;29;20195;-64
2023/09/15 05:26:08;;;;;;;0.30;0.20;;;12.90;99.90;;;;;;4955879;28;20200;-70
2023/09/15 05:28:34;;;;;;;0.30;0.20;;;13.00;99.90;;;;;;4945792;28;20182;-68
2023/09/15 05:31:00;;;;;;;0.30;0.30;;;13.00;99.90;;;;;;4975104;28;20236;-68
2023/09/15 05:33:26;;;;;;;0.30;0.20;;;13.00;99.90;;;;;;4957798;28;20288;-67
2023/09/15 05:35:58;;;;;;;0.30;0.30;;;13.00;99.90;;;;;;4974570;28;20569;-67
2023/09/15 05:38:24;;;;;;;0.30;0.30;;;13.10;99.90;;;;;;4975131;28;20414;-72
2023/09/15 05:40:50;;;;;;;0.70;0.57;;;13.00;99.90;;;;;;4957353;28;20418;-70
2023/09/15 05:43:20;;;;;;;0.30;0.30;;;13.00;99.90;;;;;;4974761;28;20414;-73
2023/09/15 05:45:46;;;;;;;0.30;0.23;;;12.90;99.90;;;;;;4960160;28;20676;-72
2023/09/15 05:48:17;;;;;;;0.30;0.20;;;13.00;99.90;;;;;;4955317;29;20439;-73
2023/09/15 05:50:43;;;;;;;0.30;0.20;;;13.20;99.90;;;;;;4955809;29;20230;-75
2023/09/15 05:53:09;;;;;;;0.30;0.27;;;13.20;99.90;;;;;;4938588;28;20460;-72
2023/09/15 05:55:34;;;;;;;0.30;0.20;;;13.40;99.90;;;;;;4974235;28;20606;-72
2023/09/15 05:58:00;;;;;;;0.30;0.20;;;13.40;99.90;;;;;;4974796;28;20171;-69
2023/09/15 06:00:26;;;;;;;0.37;0.37;;;13.40;99.90;;;;;;4974800;28;20536;-71
2023/09/15 06:02:51;;;;;;;0.30;0.20;;;13.40;99.90;;;;;;4974855;28;20191;-71
2023/09/15 06:05:19;;;;;;;0.30;0.30;;;13.40;99.90;;;;;;4957065;28;20226;-68
2023/09/15 06:07:49;;;;;;;0.30;0.20;;;13.50;99.90;;;;;;4974459;28;20186;-70
2023/09/15 06:10:15;;;;;;;0.30;0.30;;;13.50;99.90;;;;;;4955321;28;20418;-70
2023/09/15 06:12:40;;;;;;;0.30;0.30;;;13.70;99.90;;;;;;4955438;28;20412;-70
2023/09/15 06:15:06;;;;;;;0.30;0.20;;;13.70;99.90;;;;;;4954677;29;20544;-70
2023/09/15 06:17:33;;;;;;;0.30;0.30;;;13.80;99.90;;;;;;4955356;29;20204;-71
2023/09/15 06:20:00;;;;;;;0.30;0.30;;;13.90;99.90;;;;;;4955167;29;20492;-69
2023/09/15 06:22:26;;;;;;;0.30;0.30;;;14.00;99.90;;;;;;4955380;28;20426;-70
2023/09/15 06:24:51;;;;;;;0.40;0.40;;;14.30;99.90;;;;;;4955601;28;20452;-64
2023/09/15 06:27:17;;;;;;;0.30;0.20;;;14.40;99.90;;;;;;4955152;28;20427;-64
2023/09/15 06:29:43;;;;;;;0.30;0.30;;;14.60;99.90;;;;;;4954982;29;20179;-65
2023/09/15 06:32:09;;;;;;;0.30;0.30;;;14.60;99.90;;;;;;4954907;29;20167;-64
2023/09/15 06:34:35;;;;;;;0.30;0.20;;;14.80;99.90;;;;;;4954548;28;20452;-63
2023/09/15 06:37:01;;;;;;;0.30;0.30;;;14.90;99.90;;;;;;4955799;28;20260;-63
2023/09/15 06:39:28;;;;;;;0.30;0.20;;;15.10;99.90;;;;;;4970134;28;20180;-64
2023/09/15 06:41:54;;;;;;;0.30;0.30;;;15.20;99.90;;;;;;4955037;29;20411;-64
2023/09/15 06:44:19;;;;;;;0.30;0.30;;;15.20;99.90;;;;;;4954530;28;20512;-64
2023/09/15 06:46:45;;;;;;;0.30;0.20;;;15.20;99.90;;;;;;4955776;28;20197;-63
2023/09/15 06:49:11;;;;;;;0.30;0.20;;;15.30;99.90;;;;;;4955912;28;20216;-64
2023/09/15 06:51:37;;;;;;;0.30;0.30;;;15.30;99.90;;;;;;4965340;28;20451;-64
2023/09/15 06:54:03;;;;;;;0.30;0.30;;;15.30;99.90;;;;;;4972702;28;20469;-64
2023/09/15 06:56:28;;;;;;;0.30;0.30;;;15.40;99.90;;;;;;4976307;28;20766;-62
2023/09/15 06:58:54;;;;;;;0.30;0.20;;;15.50;99.90;;;;;;4974242;28;20168;-61
2023/09/15 07:01:20;;;;;;;0.30;0.30;;;15.70;99.90;;;;;;4966132;28;20182;-62
2023/09/15 07:03:45;;;;;;;0.30;0.20;;;15.90;99.90;;;;;;4969103;28;20182;-62
2023/09/15 07:06:13;;;;;;;0.30;0.20;;;16.10;99.90;;;;;;4973826;28;20625;-61
2023/09/15 07:08:39;;;;;;;0.30;0.20;;;16.30;99.90;;;;;;4973470;28;20595;-62
2023/09/15 07:11:05;;;;;;;0.30;0.30;;;16.40;99.90;;;;;;4971483;28;20506;-63
2023/09/15 07:13:30;;;;;;;0.30;0.30;;;16.70;99.90;;;;;;4965017;28;20502;-71
2023/09/15 07:15:56;;;;;;;0.30;0.20;;;17.00;99.90;;;;;;4970125;28;20220;-75
2023/09/15 07:18:22;;;;;;;0.30;0.27;;;17.20;99.90;;;;;;4963844;28;20700;-62
2023/09/15 07:20:47;;;;;;;0.30;0.20;;;17.40;99.90;;;;;;4961371;28;20181;-64
2023/09/15 07:23:13;;;;;;;0.30;0.20;;;17.50;99.90;;;;;;4955748;28;20327;-64
2023/09/15 07:25:38;;;;;;;0.30;0.20;;;17.70;99.90;;;;;;4972953;28;20685;-65
2023/09/15 07:28:04;;;;;;;0.40;0.40;;;17.90;99.90;;;;;;4973942;28;20251;-65
2023/09/15 07:30:30;;;;;;;0.30;0.30;;;18.00;99.90;;;;;;4973885;28;20176;-65
2023/09/15 07:32:56;;;;;;;0.30;0.20;;;18.10;99.90;;;;;;4956636;28;20394;-63
2023/09/15 07:35:22;;;;;;;0.30;0.20;;;18.20;99.90;;;;;;4975854;28;20228;-64
2023/09/15 07:37:48;;;;;;;0.30;0.20;;;18.50;99.90;;;;;;4960028;28;20168;-65
2023/09/15 07:40:14;;;;;;;0.30;0.30;;;18.70;99.90;;;;;;4958452;28;20828;-64
2023/09/15 07:42:40;;;;;;;0.30;0.30;;;18.60;99.90;;;;;;4958044;29;20387;-64
2023/09/15 07:45:06;;;;;;;0.90;0.90;;;18.40;99.90;;;;;;4957254;29;20200;-65
2023/09/15 07:47:33;;;;;;;0.30;0.20;;;18.40;99.90;;;;;;4957918;28;20391;-64
2023/09/15 07:49:59;;;;;;;0.30;0.20;;;18.50;99.90;;;;;;4957706;29;20409;-65
2023/09/15 07:52:29;;;;;;;0.30;0.20;;;19.10;99.90;;;;;;4957811;29;20909;-62
2023/09/15 07:54:54;;;;;;;0.30;0.20;;;20.00;99.90;;;;;;4975970;28;20649;-64
2023/09/15 07:57:20;;;;;;;0.30;0.30;;;21.20;99.90;;;;;;4977009;28;20829;-64
2023/09/15 07:59:45;;;;;;;0.30;0.20;;;22.50;99.90;;;;;;4976953;28;20262;-64
2023/09/15 08:02:11;;;;;;;0.77;0.50;;;23.70;99.90;;;;;;4977082;28;20176;-65
2023/09/15 08:04:37;;;;;;;0.30;0.20;;;24.60;99.90;;;;;;4976394;28;20179;-64
2023/09/15 08:07:04;;;;;;;0.30;0.30;;;25.70;98.20;;;;;;4976647;28;20199;-64
2023/09/15 08:09:30;;;;;;;0.40;0.40;;;26.30;96.80;;;;;;4958880;28;20184;-65
2023/09/15 08:11:59;;;;;;;0.30;0.30;;;27.00;95.20;;;;;;4957409;29;20452;-64
2023/09/15 08:14:26;;;;;;;0.30;0.30;;;27.50;94.10;;;;;;4956806;29;20189;-66
2023/09/15 08:16:51;;;;;;;0.30;0.20;;;28.00;92.40;;;;;;4957391;29;20448;-65
2023/09/15 08:19:17;;;;;;;1.23;0.50;;;28.20;91.90;;;;;;4956980;28;20420;-64
2023/09/15 08:21:43;;;;;;;0.40;0.40;;;28.70;91.30;;;;;;4957744;29;20181;-64
2023/09/15 08:24:08;;;;;;;0.30;0.23;;;29.10;91.50;;;;;;4957926;28;20435;-66
2023/09/15 08:26:34;;;;;;;0.30;0.30;;;29.60;90.30;;;;;;4957732;28;20231;-64
2023/09/15 08:29:00;;;;;;;1.27;0.93;;;29.90;88.00;;;;;;4965770;28;20176;-64
2023/09/15 08:31:28;;;;;;;0.70;0.70;;;30.20;86.80;;;;;;4976498;28;20591;-66
2023/09/15 08:33:54;;;;;;;0.40;0.40;;;30.40;85.30;;;;;;4976089;28;20208;-65
2023/09/15 08:36:20;;;;;;;0.33;0.30;;;30.70;86.60;;;;;;4976289;28;20431;-64
2023/09/15 08:38:45;;;;;;;0.43;0.43;;;31.20;85.20;;;;;;4976317;28;20271;-64
2023/09/15 08:41:40;;;;;;;0.30;0.30;;;31.70;81.10;;;;;;4976155;28;20208;-66
2023/09/15 08:44:09;;;;;;;0.60;0.60;;;31.70;81.60;;;;;;4935985;28;20189;-65
2023/09/15 08:46:41;;;;;;;0.40;0.40;;;31.80;80.60;;;;;;4955829;28;20508;-65
2023/09/15 08:49:09;;;;;;;0.40;0.40;;;31.90;80.70;;;;;;4957118;29;20452;-66
2023/09/15 08:51:36;;;;;;;0.50;0.50;;;31.90;79.60;;;;;;4956861;29;20472;-64
2023/09/15 08:54:03;;;;;;;0.30;0.30;;;31.80;80.10;;;;;;4956380;28;20453;-65
2023/09/15 08:56:29;;;;;;;0.50;0.50;;;31.80;80.50;;;;;;4965466;28;20443;-64
2023/09/15 08:58:56;;;;;;;0.30;0.30;;;32.00;79.50;;;;;;4976498;28;20415;-64
2023/09/15 09:01:22;;;;;;;0.30;0.30;;;32.30;79.30;;;;;;4975870;28;20637;-66
2023/09/15 09:03:48;;;;;;;0.30;0.30;;;32.50;77.10;;;;;;4976106;28;20510;-65
2023/09/15 09:06:15;;;;;;;0.37;0.37;;;32.70;78.60;;;;;;4975628;28;20208;-65
2023/09/15 09:08:44;;;;;;;0.57;0.57;;;33.20;76.80;;;;;;4975927;28;20183;-63
2023/09/15 09:11:10;;;;;;;0.70;0.70;;;33.60;75.00;;;;;;4966746;28;20460;-65
2023/09/15 09:13:38;;;;;;;0.60;0.60;;;33.60;75.10;;;;;;4956041;29;20459;-66
2023/09/15 09:16:05;;;;;;;0.40;0.40;;;33.50;74.30;;;;;;4956315;28;20528;-66
2023/09/15 09:18:32;;;;;;;0.30;0.30;;;33.50;75.60;;;;;;4956433;29;20416;-65
2023/09/15 09:20:57;;;;;;;0.70;0.50;;;33.60;74.30;;;;;;4955742;29;20471;-64
2023/09/15 09:23:23;;;;;;;0.30;0.30;;;33.60;74.70;;;;;;4960806;28;20455;-64
2023/09/15 09:25:49;;;;;;;0.30;0.30;;;33.60;74.90;;;;;;4974542;28;20192;-66
2023/09/15 09:28:15;;;;;;;0.50;0.50;;;33.90;73.80;;;;;;4975491;28;20251;-64
2023/09/15 09:30:41;;;;;;;0.70;0.70;;;34.40;73.10;;;;;;4975548;28;20496;-66
2023/09/15 09:33:11;;;;;;;0.60;0.60;;;34.80;72.40;;;;;;4975199;28;20598;-65
2023/09/15 09:35:37;;;;;;;0.50;0.50;;;34.90;71.20;;;;;;4974975;28;20511;-62
2023/09/15 09:38:04;;;;;;;0.50;0.50;;;34.70;72.10;;;;;;4970499;28;20519;-61
2023/09/15 09:40:32;;;;;;;0.40;0.40;;;34.60;71.10;;;;;;4956177;29;20538;-65
2023/09/15 09:42:58;;;;;;;0.40;0.40;;;34.60;72.70;;;;;;4956032;28;20436;-63
2023/09/15 09:45:27;;;;;;;0.40;0.40;;;34.60;71.50;;;;;;4955255;29;20414;-65
2023/09/15 09:47:54;;;;;;;0.63;0.63;;;34.20;72.70;;;;;;4955988;29;20235;-66
2023/09/15 09:50:20;;;;;;;0.40;0.40;;;34.20;73.40;;;;;;4955880;29;20918;-63
2023/09/15 09:52:46;;;;;;;0.40;0.40;;;34.40;72.60;;;;;;4959740;28;20430;-65
2023/09/15 09:55:12;;;;;;;0.40;0.40;;;34.50;72.70;;;;;;4974617;28;20583;-63
2023/09/15 09:57:39;;;;;;;0.60;0.60;;;34.50;73.20;;;;;;4974609;28;20451;-63
2023/09/15 10:00:09;;;;;;;0.50;0.50;;;34.60;73.80;;;;;;4958500;28;20424;-66
2023/09/15 10:02:36;;;;;;;0.30;0.30;;;34.30;73.90;;;;;;4955416;29;20902;-64
2023/09/15 10:05:03;;;;;;;0.40;0.40;;;34.10;73.80;;;;;;4955073;28;20960;-65
2023/09/15 10:07:30;;;;;;;0.30;0.30;;;34.00;73.00;;;;;;4938092;29;20448;-64
2023/09/15 10:09:56;;;;;;;0.60;0.60;;;34.00;73.60;;;;;;4955518;28;20463;-65
2023/09/15 10:12:23;;;;;;;0.40;0.40;;;34.00;73.00;;;;;;4955522;29;20416;-65
2023/09/15 10:14:51;;;;;;;0.30;0.30;;;33.90;73.40;;;;;;4970720;28;20822;-65
2023/09/15 10:17:21;;;;;;;0.60;0.60;;;34.00;73.20;;;;;;4974619;28;20436;-64
2023/09/15 10:19:51;;;;;;;0.30;0.30;;;34.10;72.50;;;;;;4974634;28;20462;-64
2023/09/15 10:22:17;;;;;;;0.50;0.50;;;34.20;73.20;;;;;;4974287;28;20439;-65
2023/09/15 10:24:47;;;;;;;0.30;0.30;;;34.30;72.20;;;;;;4960092;28;20429;-63
2023/09/15 10:27:17;;;;;;;0.40;0.40;;;34.20;72.30;;;;;;4955245;29;20460;-65
2023/09/15 10:29:46;;;;;;;0.40;0.40;;;34.10;72.40;;;;;;4955099;29;20417;-64
2023/09/15 10:32:19;;;;;;;0.60;0.60;;;33.70;73.70;;;;;;4955045;28;20420;-63
2023/09/15 10:34:47;;;;;;;0.60;0.50;;;33.80;73.90;;;;;;4954879;28;20464;-63
2023/09/15 10:37:13;;;;;;;0.67;0.40;;;33.70;74.00;;;;;;4954990;29;20405;-62
2023/09/15 10:39:43;;;;;;;0.30;0.30;;;33.70;74.40;;;;;;4970039;28;20475;-64
2023/09/15 10:42:13;;;;;;;0.47;0.47;;;33.70;74.00;;;;;;4954798;28;20432;-63
2023/09/15 10:44:40;;;;;;;0.30;0.20;;;33.50;75.00;;;;;;4954518;29;20458;-65
2023/09/15 10:47:16;;;;;;;0.63;0.53;;;33.20;75.20;;;;;;4955081;29;20410;-64
2023/09/15 10:49:52;;;;;;;0.30;0.20;;;33.10;76.00;;;;;;4955029;28;20974;-64
2023/09/15 10:52:31;;;;;;;0.30;0.30;;;33.10;76.20;;;;;;4959190;28;20463;-64
2023/09/15 10:54:56;;;;;;;0.50;0.50;;;33.10;76.30;;;;;;4973866;28;20977;-64
2023/09/15 10:57:22;;;;;;;0.40;0.30;;;33.10;76.10;;;;;;4974519;28;20397;-66
2023/09/15 10:59:49;;;;;;;0.30;0.20;;;33.20;77.10;;;;;;4974200;28;20206;-65
2023/09/15 11:02:14;;;;;;;0.40;0.40;;;33.00;76.90;;;;;;4956976;28;20426;-66
2023/09/15 11:04:40;;;;;;;0.30;0.30;;;32.90;76.30;;;;;;4973855;28;20852;-62
2023/09/15 11:07:06;;;;;;;0.83;0.83;;;32.50;77.90;;;;;;4974267;28;20196;-62
2023/09/15 11:09:32;;;;;;;0.30;0.30;;;31.70;78.70;;;;;;4963325;28;20189;-62
2023/09/15 11:12:00;;;;;;;0.60;0.40;;;30.80;80.10;;;;;;4958735;28;20907;-63
2023/09/15 11:14:26;;;;;;;0.30;0.30;;;30.00;81.20;;;;;;4958369;28;20563;-62
2023/09/15 11:16:57;;;;;;;0.60;0.60;;;29.20;84.10;;;;;;4958604;29;20467;-63
2023/09/15 11:19:25;;;;;;;0.50;0.50;;;28.60;86.60;;;;;;4958694;29;20539;-63
2023/09/15 11:21:50;;;;;;;0.30;0.20;;;28.10;86.60;;;;;;4958737;29;20383;-65
2023/09/15 11:24:16;;;;;;;1.23;0.60;;;27.70;85.50;;;;;;4958726;28;20449;-63
2023/09/15 11:26:52;;;;;;;0.73;0.33;;;27.40;86.60;;;;;;4958440;28;20197;-63
2023/09/15 11:29:30;;;;;;;0.40;0.40;;;27.20;86.30;;;;;;4959069;29;20518;-64
2023/09/15 11:31:59;;;;;;;0.40;0.30;;;27.00;86.10;;;;;;4958536;29;20767;-66
2023/09/15 11:34:26;;;;;;;0.30;0.20;;;26.80;87.20;;;;;;4941340;29;20806;-63
2023/09/15 11:36:58;;;;;;;0.30;0.20;;;26.70;88.00;;;;;;4958417;28;20417;-61
2023/09/15 11:39:23;;;;;;;0.30;0.30;;;26.50;89.30;;;;;;4973245;28;20519;-61
2023/09/15 11:41:58;;;;;;;0.40;0.30;;;26.50;88.60;;;;;;4977695;28;20984;-73
2023/09/15 11:44:26;;;;;;;0.40;0.40;;;26.40;88.20;;;;;;4977176;28;20175;-75
2023/09/15 11:46:55;;;;;;;0.30;0.30;;;26.30;88.60;;;;;;4977545;28;20418;-70
2023/09/15 11:49:22;;;;;;;0.30;0.20;;;26.20;88.70;;;;;;4977447;28;20471;-74
2023/09/15 11:51:48;;;;;;;0.30;0.20;;;26.10;88.80;;;;;;4977381;28;20750;-72
2023/09/15 11:54:15;;;;;;;0.30;0.20;;;26.10;89.00;;;;;;4960817;28;20443;-73
2023/09/15 11:56:42;;;;;;;0.30;0.30;;;26.00;89.30;;;;;;4958255;28;20793;-72
2023/09/15 11:59:08;;;;;;;0.30;0.30;;;25.90;89.70;;;;;;4958328;29;20442;-74
2023/09/15 12:01:33;;;;;;;0.30;0.20;;;25.90;89.50;;;;;;4958052;29;20391;-74
2023/09/15 12:04:00;;;;;;;0.30;0.20;;;25.80;90.00;;;;;;4957675;29;21036;-73
2023/09/15 12:06:26;;;;;;;0.30;0.20;;;25.80;90.10;;;;;;4957687;28;20204;-72
2023/09/15 12:08:53;;;;;;;0.30;0.20;;;25.80;88.80;;;;;;4957779;28;20551;-71
2023/09/15 12:11:19;;;;;;;0.30;0.30;;;25.70;89.20;;;;;;4958033;28;20412;-72
2023/09/15 12:13:51;;;;;;;0.30;0.20;;;25.70;89.60;;;;;;4957480;29;20452;-73
2023/09/15 12:16:19;;;;;;;0.30;0.20;;;25.70;89.10;;;;;;4957879;29;20467;-71
2023/09/15 12:18:49;;;;;;;0.30;0.20;;;25.70;87.20;;;;;;4940566;29;20408;-74
2023/09/15 12:21:15;;;;;;;0.40;0.30;;;25.80;87.60;;;;;;4957138;28;20402;-73
2023/09/15 12:23:42;;;;;;;0.30;0.20;;;25.80;86.30;;;;;;4972368;28;20430;-72
2023/09/15 12:26:09;;;;;;;0.30;0.20;;;25.70;85.30;;;;;;4976710;28;20432;-72
2023/09/15 12:28:35;;;;;;;0.40;0.40;;;25.80;83.90;;;;;;4976493;28;20507;-74
2023/09/15 12:31:01;;;;;;;0.30;0.20;;;25.70;83.60;;;;;;4975266;28;20897;-74
2023/09/15 12:33:29;;;;;;;0.30;0.30;;;25.80;84.80;;;;;;4970670;28;20543;-72
2023/09/15 12:35:56;;;;;;;0.30;0.30;;;25.90;82.50;;;;;;4956700;29;20944;-73
2023/09/15 12:38:21;;;;;;;0.30;0.20;;;25.90;82.90;;;;;;4957156;29;20398;-74
2023/09/15 12:40:48;;;;;;;0.30;0.20;;;25.90;83.20;;;;;;4957141;29;20372;-75
2023/09/15 12:43:14;;;;;;;0.30;0.20;;;25.90;84.50;;;;;;4955755;29;20659;-74
2023/09/15 12:45:40;;;;;;;0.77;0.77;;;25.90;84.50;;;;;;4954720;28;20491;-74
2023/09/15 12:48:08;;;;;;;0.40;0.30;;;26.00;85.90;;;;;;4958839;28;20519;-74
2023/09/15 12:50:35;;;;;;;0.30;0.20;;;26.00;85.90;;;;;;4974282;28;20609;-75
2023/09/15 12:53:01;;;;;;;0.30;0.20;;;26.00;84.40;;;;;;4974233;28;20449;-73
2023/09/15 12:55:28;;;;;;;0.30;0.30;;;26.00;85.80;;;;;;4973719;28;20463;-71
2023/09/15 12:57:53;;;;;;;0.50;0.40;;;25.90;84.90;;;;;;4974971;28;20930;-72
2023/09/15 13:00:19;;;;;;;0.30;0.30;;;25.80;85.50;;;;;;4976311;28;20386;-73
2023/09/15 13:02:46;;;;;;;0.30;0.20;;;25.80;86.50;;;;;;4972664;28;20165;-74
2023/09/15 13:05:12;;;;;;;0.37;0.37;;;25.80;87.50;;;;;;4956395;29;20917;-74
2023/09/15 13:07:42;;;;;;;0.30;0.20;;;25.80;87.00;;;;;;4957018;28;20435;-73
2023/09/15 13:10:12;;;;;;;0.30;0.20;;;25.80;88.50;;;;;;4939595;29;20400;-74
2023/09/15 13:12:41;;;;;;;0.30;0.20;;;25.80;89.30;;;;;;4956677;29;20746;-74
2023/09/15 13:15:08;;;;;;;0.57;0.30;;;25.90;88.30;;;;;;4956349;29;20519;-75
2023/09/15 13:17:33;;;;;;;0.30;0.20;;;25.90;88.50;;;;;;4939574;29;20428;-74
2023/09/15 13:20:06;;;;;;;0.30;0.20;;;25.90;89.30;;;;;;4956894;28;20411;-74
2023/09/15 13:22:35;;;;;;;0.30;0.20;;;25.80;87.50;;;;;;4961344;28;20393;-74
2023/09/15 13:25:03;;;;;;;0.30;0.20;;;25.80;87.60;;;;;;4975019;28;21007;-76
2023/09/15 13:27:29;;;;;;;0.30;0.20;;;25.70;87.70;;;;;;4958561;28;20390;-74
2023/09/15 13:29:58;;;;;;;0.30;0.30;;;25.60;88.00;;;;;;4975635;28;20890;-75
2023/09/15 13:32:25;;;;;;;0.30;0.30;;;25.60;88.00;;;;;;4954209;28;20942;-73
2023/09/15 13:34:52;;;;;;;0.50;0.40;;;25.60;88.10;;;;;;4955712;28;20442;-74
2023/09/15 13:37:17;;;;;;;0.30;0.20;;;25.60;89.80;;;;;;4956202;29;20456;-74
2023/09/15 13:39:43;;;;;;;0.40;0.40;;;25.60;89.30;;;;;;4956189;28;20902;-74
2023/09/15 13:42:08;;;;;;;0.30;0.20;;;25.60;90.20;;;;;;4956251;29;20223;-74
2023/09/15 13:44:34;;;;;;;0.30;0.20;;;25.60;90.00;;;;;;4955809;29;20177;-75
2023/09/15 13:47:00;;;;;;;0.60;0.57;;;25.60;90.50;;;;;;4958066;28;20184;-75
2023/09/15 13:49:25;;;;;;;0.30;0.20;;;25.50;90.50;;;;;;4975212;28;20172;-75
2023/09/15 13:51:51;;;;;;;0.30;0.20;;;25.50;90.60;;;;;;4975362;28;20252;-74
2023/09/15 13:54:18;;;;;;;0.30;0.20;;;25.50;90.90;;;;;;4974764;28;20201;-74
2023/09/15 13:56:44;;;;;;;0.30;0.20;;;25.50;91.50;;;;;;4975715;28;20196;-74
2023/09/15 13:59:09;;;;;;;0.60;0.57;;;25.50;91.20;;;;;;4966577;28;20412;-73
2023/09/15 14:01:37;;;;;;;0.30;0.20;;;25.50;91.10;;;;;;4956022;29;20709;-72
2023/09/15 14:04:02;;;;;;;0.30;0.20;;;25.50;91.10;;;;;;4955385;29;20232;-73
2023/09/15 14:06:28;;;;;;;0.30;0.20;;;25.40;91.10;;;;;;4955328;28;20964;-74
2023/09/15 14:08:54;;;;;;;1.07;0.83;;;25.30;91.50;;;;;;4955542;29;20169;-73
2023/09/15 14:11:19;;;;;;;0.30;0.27;;;25.20;91.70;;;;;;4938481;29;20181;-73
2023/09/15 14:13:45;;;;;;;0.30;0.30;;;25.20;91.90;;;;;;4955357;28;20204;-73
2023/09/15 14:16:11;;;;;;;0.30;0.30;;;25.10;91.90;;;;;;4955436;28;20235;-74
2023/09/15 14:18:37;;;;;;;0.30;0.20;;;25.20;91.60;;;;;;4955492;28;20729;-72
2023/09/15 14:21:02;;;;;;;0.30;0.30;;;25.20;92.00;;;;;;4955707;28;20552;-74
2023/09/15 14:23:28;;;;;;;0.30;0.20;;;25.20;92.30;;;;;;4961526;28;20458;-72
2023/09/15 14:25:54;;;;;;;0.60;0.40;;;25.10;92.60;;;;;;4974212;28;20283;-74
2023/09/15 14:28:19;;;;;;;0.50;0.50;;;25.10;92.50;;;;;;4974570;28;20183;-73
2023/09/15 14:30:51;;;;;;;0.30;0.20;;;25.10;92.50;;;;;;4974684;28;20168;-73
2023/09/15 14:33:16;;;;;;;0.30;0.20;;;25.10;92.60;;;;;;4974779;28;20220;-73
2023/09/15 14:35:42;;;;;;;0.30;0.20;;;25.00;92.90;;;;;;4974158;28;20807;-74
2023/09/15 14:38:07;;;;;;;0.30;0.30;;;25.00;93.00;;;;;;4968652;28;20200;-72
2023/09/15 14:40:33;;;;;;;0.30;0.20;;;25.10;93.00;;;;;;4955065;28;20212;-74
2023/09/15 14:42:59;;;;;;;0.30;0.20;;;25.10;93.10;;;;;;4954939;29;20664;-74
2023/09/15 14:45:26;;;;;;;0.30;0.20;;;25.10;93.00;;;;;;4954291;28;20218;-73
2023/09/15 14:47:53;;;;;;;0.30;0.20;;;25.10;92.70;;;;;;4955304;29;20655;-74
2023/09/15 14:50:19;;;;;;;0.30;0.20;;;25.10;92.50;;;;;;4955122;29;20408;-73
2023/09/15 14:52:44;;;;;;;0.40;0.33;;;25.10;92.80;;;;;;4959697;28;20460;-74
2023/09/15 14:55:10;;;;;;;0.30;0.30;;;25.00;92.90;;;;;;4974040;28;20595;-74
2023/09/15 14:57:35;;;;;;;0.30;0.20;;;25.00;93.10;;;;;;4974575;28;20550;-76
2023/09/15 15:00:01;;;;;;;0.50;0.50;;;25.00;93.70;;;;;;4974496;28;20196;-73
2023/09/15 15:02:27;;;;;;;0.30;0.20;;;25.00;93.60;;;;;;4974479;28;20247;-73
2023/09/15 15:04:53;;;;;;;0.30;0.30;;;24.90;93.70;;;;;;4956593;28;20594;-73
2023/09/15 15:07:18;;;;;;;0.30;0.30;;;24.90;93.70;;;;;;4970613;28;20185;-73
2023/09/15 15:09:44;;;;;;;0.50;0.40;;;25.00;93.50;;;;;;4954973;28;20231;-73
2023/09/15 15:12:10;;;;;;;0.30;0.20;;;24.90;93.80;;;;;;4955014;29;20181;-74
2023/09/15 15:14:37;;;;;;;0.30;0.20;;;25.00;93.40;;;;;;4954482;28;20205;-75
2023/09/15 15:17:03;;;;;;;0.30;0.20;;;24.90;93.60;;;;;;4955145;28;20408;-71
2023/09/15 15:19:28;;;;;;;0.30;0.20;;;24.90;93.70;;;;;;4955579;28;20526;-74
2023/09/15 15:21:54;;;;;;;0.40;0.40;;;24.80;93.80;;;;;;4939598;28;20416;-74
2023/09/15 15:24:20;;;;;;;0.30;0.30;;;24.70;93.90;;;;;;4973858;28;20180;-74
2023/09/15 15:26:45;;;;;;;0.30;0.20;;;24.70;93.90;;;;;;4973703;28;20200;-74
2023/09/15 15:29:11;;;;;;;0.53;0.53;;;24.70;94.20;;;;;;4974262;28;20172;-73
2023/09/15 15:31:37;;;;;;;0.30;0.20;;;24.60;94.40;;;;;;4974255;28;20171;-74
2023/09/15 15:34:04;;;;;;;0.30;0.20;;;24.60;94.50;;;;;;4973749;28;20846;-75
2023/09/15 15:36:30;;;;;;;0.30;0.30;;;24.60;94.70;;;;;;4973956;28;20776;-74
2023/09/15 15:38:57;;;;;;;0.30;0.20;;;24.60;94.80;;;;;;4948320;28;20504;-73
2023/09/15 15:41:22;;;;;;;0.30;0.20;;;24.60;94.80;;;;;;4954822;29;20911;-74
2023/09/15 15:43:48;;;;;;;0.30;0.20;;;24.60;94.70;;;;;;4954717;29;20414;-74
2023/09/15 15:46:14;;;;;;;0.30;0.20;;;24.60;94.70;;;;;;4954647;29;20188;-74
2023/09/15 15:48:40;;;;;;;0.30;0.27;;;24.60;94.90;;;;;;4954829;29;20169;-72
2023/09/15 15:51:07;;;;;;;0.30;0.30;;;24.60;94.90;;;;;;4954570;29;20431;-73
2023/09/15 15:53:34;;;;;;;0.37;0.37;;;24.60;95.10;;;;;;4955443;28;20557;-75
2023/09/15 15:56:01;;;;;;;0.30;0.20;;;24.60;95.40;;;;;;4956253;28;20481;-73
2023/09/15 15:58:27;;;;;;;0.30;0.30;;;24.60;95.60;;;;;;4958070;29;20409;-73
2023/09/15 16:00:52;;;;;;;0.30;0.30;;;24.60;95.40;;;;;;4958341;28;20401;-72
2023/09/15 16:03:18;;;;;;;0.80;0.40;;;24.50;95.40;;;;;;4958103;29;20176;-74
2023/09/15 16:05:43;;;;;;;0.30;0.30;;;24.50;95.60;;;;;;4957284;29;20244;-73
2023/09/15 16:08:09;;;;;;;0.30;0.20;;;24.50;95.70;;;;;;4968878;28;20605;-71
2023/09/15 16:10:36;;;;;;;0.30;0.23;;;24.50;95.90;;;;;;4976717;28;20172;-71
2023/09/15 16:13:02;;;;;;;0.30;0.20;;;24.40;95.90;;;;;;4977140;28;20530;-74
2023/09/15 16:15:29;;;;;;;0.30;0.20;;;24.40;96.00;;;;;;4976571;28;20446;-71
2023/09/15 16:17:55;;;;;;;0.30;0.30;;;24.30;96.30;;;;;;4977072;28;20414;-72
2023/09/15 16:20:21;;;;;;;0.30;0.20;;;24.30;96.10;;;;;;4977032;28;20487;-72
2023/09/15 16:22:47;;;;;;;0.30;0.20;;;24.30;96.40;;;;;;4966274;28;20517;-73
2023/09/15 16:25:13;;;;;;;0.30;0.20;;;24.20;96.70;;;;;;4957131;29;20263;-74
2023/09/15 16:27:40;;;;;;;0.30;0.20;;;24.20;96.70;;;;;;4957535;28;20418;-72
2023/09/15 16:30:07;;;;;;;0.30;0.30;;;24.20;96.70;;;;;;4957284;28;20467;-73
2023/09/15 16:32:35;;;;;;;0.30;0.30;;;24.20;96.80;;;;;;4957431;28;20412;-71
2023/09/15 16:35:02;;;;;;;0.40;0.40;;;24.10;96.90;;;;;;4956933;29;20474;-73
2023/09/15 16:37:28;;;;;;;0.30;0.20;;;24.00;97.20;;;;;;4966789;28;20447;-73
2023/09/15 16:39:53;;;;;;;0.30;0.30;;;24.10;97.20;;;;;;4958790;28;20421;-72
2023/09/15 16:42:19;;;;;;;0.30;0.20;;;24.00;97.20;;;;;;4957291;29;20186;-71
2023/09/15 16:44:44;;;;;;;0.30;0.30;;;24.00;97.30;;;;;;4957249;28;20206;-75
2023/09/15 16:47:17;;;;;;;0.30;0.20;;;24.00;97.50;;;;;;4950254;28;20243;-71
2023/09/15 16:49:42;;;;;;;0.30;0.20;;;23.90;97.50;;;;;;4974851;28;20658;-72